createdAt,value
2022-11-15T00:00:51.854Z,30.40
2022-11-15T00:03:21.958Z,32.17
2022-11-15T00:05:51.956Z,32.30
2022-11-15T00:08:20.567Z,32.20
2022-11-15T00:10:56.737Z,33.20
2022-11-15T00:13:25.364Z,34.00
2022-11-15T00:15:53.573Z,31.73
2022-11-15T00:18:21.627Z,31.50
2022-11-15T00:20:51.005Z,31.87
2022-11-15T00:23:19.064Z,32.10
2022-11-15T00:25:47.143Z,31.23
2022-11-15T00:28:15.143Z,31.87
2022-11-15T00:30:43.179Z,31.40
2022-11-15T00:33:12.032Z,31.07
2022-11-15T00:35:40.126Z,31.50
2022-11-15T00:38:09.570Z,30.70
2022-11-15T00:40:37.722Z,31.47
2022-11-15T00:43:05.778Z,32.33
2022-11-15T00:45:33.802Z,31.53
2022-11-15T00:48:01.897Z,31.53
2022-11-15T00:50:29.945Z,31.77
2022-11-15T00:52:58.306Z,30.73
2022-11-15T00:55:27.740Z,31.43
2022-11-15T00:57:55.767Z,32.60
2022-11-15T01:00:24.269Z,33.53
2022-11-15T01:02:52.313Z,30.30
2022-11-15T01:05:20.523Z,29.03
2022-11-15T01:07:48.643Z,28.93
2022-11-15T01:10:16.727Z,28.93
2022-11-15T01:12:46.166Z,26.67
2022-11-15T01:15:14.338Z,27.03
2022-11-15T01:17:42.552Z,26.70
2022-11-15T01:20:11.791Z,27.20
2022-11-15T01:22:39.979Z,27.20
2022-11-15T01:25:08.586Z,26.43
2022-11-15T01:27:36.650Z,27.97
2022-11-15T01:30:07.967Z,28.47
2022-11-15T01:32:36.331Z,26.50
2022-11-15T01:35:04.451Z,29.43
2022-11-15T01:37:32.535Z,28.60
2022-11-15T01:40:00.788Z,26.87
2022-11-15T01:42:28.848Z,28.73
2022-11-15T01:44:56.871Z,25.90
2022-11-15T01:47:30.584Z,26.87
2022-11-15T01:50:02.809Z,27.73
2022-11-15T01:52:33.740Z,25.50
2022-11-15T01:55:07.583Z,26.20
2022-11-15T01:57:36.153Z,25.73
2022-11-15T02:00:06.879Z,27.83
2022-11-15T02:02:40.272Z,26.27
2022-11-15T02:05:08.931Z,26.30
2022-11-15T02:07:37.897Z,26.63
2022-11-15T02:10:10.587Z,26.33
2022-11-15T02:12:39.324Z,27.07
2022-11-15T02:15:10.382Z,26.87
2022-11-15T02:17:55.750Z,26.87
2022-11-15T02:20:48.539Z,26.57
2022-11-15T02:23:48.177Z,25.83
2022-11-15T02:26:42.305Z,25.40
2022-11-15T02:29:14.363Z,26.00
2022-11-15T02:31:50.787Z,25.33
2022-11-15T02:34:28.817Z,25.90
2022-11-15T02:37:06.424Z,25.30
2022-11-15T02:39:39.381Z,26.30
2022-11-15T02:42:33.526Z,24.43
2022-11-15T02:45:05.653Z,25.03
2022-11-15T02:47:41.783Z,27.60
2022-11-15T02:50:13.518Z,25.37
2022-11-15T02:52:41.568Z,27.17
2022-11-15T02:55:28.165Z,26.50
2022-11-15T02:58:09.186Z,24.97
2022-11-15T03:00:42.415Z,25.73
2022-11-15T03:03:39.853Z,25.97
2022-11-15T03:06:17.421Z,25.80
2022-11-15T03:08:55.893Z,25.00
2022-11-15T03:11:25.484Z,26.27
2022-11-15T03:14:00.344Z,26.20
2022-11-15T03:16:33.295Z,27.47
2022-11-15T03:19:09.070Z,27.17
2022-11-15T03:21:41.934Z,26.57
2022-11-15T03:24:11.564Z,27.73
2022-11-15T03:26:43.553Z,27.83
2022-11-15T03:29:15.712Z,26.13
2022-11-15T03:31:51.556Z,26.13
2022-11-15T03:34:29.108Z,22.13
2022-11-15T03:36:58.154Z,22.03
2022-11-15T03:39:27.187Z,23.00
2022-11-15T03:42:06.904Z,22.33
2022-11-15T03:44:43.473Z,23.10
2022-11-15T03:47:15.734Z,24.27
2022-11-15T03:49:49.087Z,23.30
2022-11-15T03:52:20.276Z,23.17
2022-11-15T03:54:54.560Z,23.50
2022-11-15T03:57:22.895Z,23.37
2022-11-15T03:59:50.921Z,23.07
2022-11-15T04:02:19.029Z,24.43
2022-11-15T04:04:48.536Z,25.93
2022-11-15T04:07:16.649Z,25.80
2022-11-15T04:09:58.763Z,24.27
2022-11-15T04:12:32.710Z,26.00
2022-11-15T04:15:09.283Z,25.10
2022-11-15T04:17:39.032Z,26.00
2022-11-15T04:20:29.438Z,24.10
2022-11-15T04:23:15.326Z,24.37
2022-11-15T04:25:44.481Z,25.07
2022-11-15T04:28:13.656Z,24.03
2022-11-15T04:30:41.706Z,23.50
2022-11-15T04:33:09.832Z,23.43
2022-11-15T04:35:39.228Z,22.87
2022-11-15T04:38:08.236Z,23.30
2022-11-15T04:40:36.682Z,21.60
2022-11-15T04:43:06.166Z,21.87
2022-11-15T04:45:34.260Z,24.47
2022-11-15T04:48:02.283Z,22.90
2022-11-15T04:50:30.373Z,22.27
2022-11-15T04:52:59.945Z,21.50
2022-11-15T04:55:28.058Z,22.90
2022-11-15T04:58:02.917Z,21.63
2022-11-15T05:00:31.708Z,23.57
2022-11-15T05:03:17.349Z,22.23
2022-11-15T05:05:45.602Z,25.67
2022-11-15T05:08:15.101Z,31.47
2022-11-15T05:10:43.143Z,22.97
2022-11-15T05:13:11.214Z,22.07
2022-11-15T05:15:39.258Z,23.93
2022-11-15T05:18:07.415Z,21.47
2022-11-15T05:20:35.389Z,23.47
2022-11-15T05:23:03.425Z,22.83
2022-11-15T05:25:32.909Z,23.97
2022-11-15T05:28:01.010Z,22.57
2022-11-15T05:30:28.982Z,22.97
2022-11-15T05:32:57.192Z,26.30
2022-11-15T05:35:36.439Z,29.27
2022-11-15T05:38:05.093Z,25.87
2022-11-15T05:40:35.924Z,25.50
2022-11-15T05:43:05.927Z,22.00
2022-11-15T05:45:35.269Z,19.73
2022-11-15T05:48:09.889Z,20.97
2022-11-15T05:50:39.177Z,20.93
2022-11-15T05:53:08.081Z,21.37
2022-11-15T05:55:39.832Z,24.87
2022-11-15T05:58:08.317Z,21.97
2022-11-15T06:00:36.604Z,21.73
2022-11-15T06:03:04.723Z,21.30
2022-11-15T06:05:32.806Z,21.40
2022-11-15T06:08:01.343Z,21.50
2022-11-15T06:10:29.417Z,20.17
2022-11-15T06:13:02.520Z,21.10
2022-11-15T06:15:30.707Z,20.20
2022-11-15T06:17:59.523Z,21.53
2022-11-15T06:20:28.093Z,21.40
2022-11-15T06:23:00.052Z,21.37
2022-11-15T06:25:28.492Z,20.60
2022-11-15T06:27:57.957Z,22.23
2022-11-15T06:30:28.643Z,22.03
2022-11-15T06:33:02.852Z,21.63
2022-11-15T06:35:31.804Z,22.43
2022-11-15T06:38:05.811Z,22.97
2022-11-15T06:40:35.961Z,28.63
2022-11-15T06:43:04.523Z,25.37
2022-11-15T06:45:34.730Z,21.80
2022-11-15T06:48:02.917Z,23.20
2022-11-15T06:50:31.053Z,21.73
2022-11-15T06:53:04.635Z,20.57
2022-11-15T06:55:32.806Z,20.23
2022-11-15T06:58:00.869Z,18.70
2022-11-15T07:00:28.978Z,19.50
2022-11-15T07:03:02.103Z,18.20
2022-11-15T07:05:30.738Z,19.77
2022-11-15T07:07:59.921Z,18.37
2022-11-15T07:10:29.742Z,18.30
2022-11-15T07:12:58.587Z,17.17
2022-11-15T07:15:27.932Z,18.20
2022-11-15T07:17:56.031Z,17.80
2022-11-15T07:20:25.656Z,19.43
2022-11-15T07:22:53.654Z,20.67
2022-11-15T07:25:21.817Z,19.83
2022-11-15T07:27:57.055Z,21.27
2022-11-15T07:30:25.971Z,18.47
2022-11-15T07:32:55.761Z,19.70
2022-11-15T07:35:25.897Z,19.40
2022-11-15T07:37:58.532Z,19.30
2022-11-15T07:40:27.676Z,19.47
2022-11-15T07:43:01.392Z,19.17
2022-11-15T07:45:29.527Z,18.63
2022-11-15T07:47:58.713Z,18.73
2022-11-15T07:50:29.258Z,18.37
2022-11-15T07:52:57.760Z,18.77
2022-11-15T07:55:26.352Z,20.00
2022-11-15T07:57:54.400Z,18.83
2022-11-15T08:00:22.615Z,18.60
2022-11-15T08:02:50.966Z,19.87
2022-11-15T08:05:19.027Z,20.10
2022-11-15T08:07:48.487Z,19.70
2022-11-15T08:10:20.352Z,20.70
2022-11-15T08:12:48.806Z,20.53
2022-11-15T08:15:17.084Z,21.33
2022-11-15T08:17:45.205Z,19.70
2022-11-15T08:20:13.591Z,20.30
2022-11-15T08:22:41.691Z,20.47
2022-11-15T08:25:11.222Z,18.23
2022-11-15T08:27:39.341Z,18.57
2022-11-15T08:30:08.498Z,18.43
2022-11-15T08:32:36.691Z,19.83
2022-11-15T08:35:05.214Z,19.70
2022-11-15T08:37:33.224Z,19.20
2022-11-15T08:40:01.334Z,19.80
2022-11-15T08:42:30.820Z,20.27
2022-11-15T08:44:58.886Z,19.13
2022-11-15T08:47:27.549Z,19.60
2022-11-15T08:49:55.796Z,19.60
2022-11-15T08:52:24.029Z,22.37
2022-11-15T08:54:52.076Z,20.90
2022-11-15T08:57:20.447Z,20.40
2022-11-15T08:59:49.892Z,21.30
2022-11-15T09:02:18.586Z,20.90
2022-11-15T09:04:46.774Z,23.47
2022-11-15T09:07:16.208Z,21.63
2022-11-15T09:09:44.559Z,21.57
2022-11-15T09:12:12.718Z,22.90
2022-11-15T09:14:41.148Z,23.57
2022-11-15T09:17:11.579Z,22.83
2022-11-15T09:19:39.643Z,23.83
2022-11-15T09:22:08.888Z,22.53
2022-11-15T09:24:37.397Z,23.70
2022-11-15T09:29:50.728Z,23.10
2022-11-15T09:32:20.238Z,24.00
2022-11-15T09:34:48.358Z,24.07
2022-11-15T09:37:16.450Z,24.17
2022-11-15T09:39:44.926Z,24.97
2022-11-15T09:42:37.273Z,24.87
2022-11-15T09:45:19.522Z,24.13
2022-11-15T09:48:06.700Z,25.87
2022-11-15T09:50:42.293Z,24.37
2022-11-15T09:53:15.737Z,23.73
2022-11-15T09:55:53.320Z,22.80
2022-11-15T09:58:29.479Z,23.13
2022-11-15T10:01:01.761Z,21.43
2022-11-15T10:03:35.970Z,23.70
2022-11-15T10:06:06.830Z,22.23
2022-11-15T10:08:47.043Z,23.27
2022-11-15T10:11:37.879Z,22.73
2022-11-15T10:14:13.742Z,24.50
2022-11-15T10:17:08.889Z,23.57
2022-11-15T10:19:49.844Z,24.03
2022-11-15T10:22:30.393Z,24.10
2022-11-15T10:25:22.486Z,25.70
2022-11-15T10:27:56.886Z,24.30
2022-11-15T10:30:30.931Z,25.13
2022-11-15T10:32:59.002Z,24.40
2022-11-15T10:35:30.547Z,24.73
2022-11-15T10:38:08.944Z,24.20
2022-11-15T10:40:37.806Z,24.97
2022-11-15T10:43:17.648Z,24.98
2022-11-15T10:45:46.579Z,24.20
2022-11-15T10:48:27.471Z,24.07
2022-11-15T10:50:57.595Z,23.23
2022-11-15T10:53:33.768Z,25.43
2022-11-15T10:56:05.692Z,24.70
2022-11-15T10:58:38.846Z,24.47
2022-11-15T11:01:19.182Z,24.43
2022-11-15T11:04:00.568Z,21.93
2022-11-15T11:06:30.386Z,24.63
2022-11-15T11:09:00.003Z,25.40
2022-11-15T11:11:47.187Z,26.13
2022-11-15T11:14:20.991Z,25.43
2022-11-15T11:16:54.379Z,25.17
2022-11-15T11:19:38.514Z,27.43
2022-11-15T11:22:15.407Z,25.30
2022-11-15T11:24:47.377Z,24.60
2022-11-15T11:27:24.153Z,24.50
2022-11-15T11:30:05.831Z,24.80
2022-11-15T11:32:56.714Z,24.17
2022-11-15T11:35:33.082Z,24.47
2022-11-15T11:38:23.218Z,25.60
2022-11-15T11:41:03.276Z,26.23
2022-11-15T11:43:42.993Z,25.97
2022-11-15T11:46:38.429Z,24.63
2022-11-15T11:49:12.421Z,24.63
2022-11-15T11:51:44.558Z,23.37
2022-11-15T11:54:20.113Z,24.47
2022-11-15T11:56:48.642Z,24.70
2022-11-15T11:59:25.163Z,24.87
2022-11-15T12:01:53.992Z,24.63
2022-11-15T12:04:29.226Z,24.13
2022-11-15T12:07:02.432Z,25.87
2022-11-15T12:09:36.136Z,26.77
2022-11-15T12:12:12.093Z,26.87
2022-11-15T12:14:46.193Z,26.30
2022-11-15T12:17:15.524Z,24.93
2022-11-15T12:19:43.989Z,24.73
2022-11-15T12:22:26.466Z,26.03
2022-11-15T12:25:00.140Z,24.27
2022-11-15T12:27:35.717Z,24.13
2022-11-15T12:30:10.855Z,23.50
2022-11-15T12:32:42.184Z,24.67
2022-11-15T12:35:26.766Z,24.83
2022-11-15T12:37:58.230Z,22.57
2022-11-15T12:40:38.668Z,24.40
2022-11-15T12:43:42.386Z,23.77
2022-11-15T12:46:21.536Z,25.23
2022-11-15T12:48:55.900Z,22.47
2022-11-15T12:51:59.602Z,24.20
2022-11-15T12:55:03.905Z,23.57
2022-11-15T12:57:40.986Z,22.90
2022-11-15T13:00:45.845Z,23.20
2022-11-15T13:03:28.216Z,24.97
2022-11-15T13:06:31.493Z,24.37
2022-11-15T13:08:59.579Z,25.50
2022-11-15T13:11:51.690Z,25.63
2022-11-15T13:14:53.260Z,23.03
2022-11-15T13:17:34.933Z,24.47
2022-11-15T13:20:22.452Z,24.90
2022-11-15T13:22:57.616Z,22.47
2022-11-15T13:25:55.305Z,24.30
2022-11-15T13:28:35.051Z,25.70
2022-11-15T13:31:16.901Z,24.93
2022-11-15T13:33:46.363Z,23.60
2022-11-15T13:36:18.550Z,23.73
2022-11-15T13:38:46.748Z,23.73
2022-11-15T13:41:21.393Z,25.47
2022-11-15T13:43:50.726Z,23.70
2022-11-15T13:46:22.687Z,24.17
2022-11-15T13:48:55.720Z,26.33
2022-11-15T13:51:31.067Z,26.77
2022-11-15T13:54:04.022Z,27.17
2022-11-15T13:56:35.108Z,27.57
2022-11-15T13:59:10.227Z,29.00
2022-11-15T14:01:43.976Z,27.97
2022-11-15T14:04:16.273Z,29.57
2022-11-15T14:06:49.966Z,27.40
2022-11-15T14:09:36.148Z,27.57
2022-11-15T14:12:20.468Z,30.77
2022-11-15T14:14:49.331Z,30.80
2022-11-15T14:17:24.744Z,30.27
2022-11-15T14:19:53.469Z,32.23
2022-11-15T14:22:27.028Z,29.43
2022-11-15T14:25:18.117Z,28.57
2022-11-15T14:27:47.465Z,28.03
2022-11-15T14:30:17.829Z,27.57
2022-11-15T14:32:49.576Z,28.00
2022-11-15T14:35:20.896Z,28.37
2022-11-15T14:37:49.355Z,29.40
2022-11-15T14:40:20.321Z,29.13
2022-11-15T14:42:50.136Z,29.23
2022-11-15T14:45:20.369Z,29.40
2022-11-15T14:47:50.212Z,27.93
2022-11-15T14:50:21.921Z,30.20
2022-11-15T14:52:50.417Z,29.50
2022-11-15T14:55:24.332Z,29.33
2022-11-15T14:57:53.509Z,29.63
2022-11-15T15:00:21.799Z,29.53
2022-11-15T15:02:52.764Z,37.23
2022-11-15T15:05:23.031Z,33.53
2022-11-15T15:07:52.692Z,30.10
2022-11-15T15:13:18.845Z,30.87
2022-11-15T15:15:47.517Z,30.97
2022-11-15T15:18:17.562Z,30.67
2022-11-15T15:20:47.408Z,31.90
2022-11-15T15:23:19.944Z,30.50
2022-11-15T15:25:50.104Z,32.13
2022-11-15T15:28:18.597Z,31.43
2022-11-15T15:30:46.639Z,32.53
2022-11-15T15:33:16.065Z,31.30
2022-11-15T15:35:44.714Z,34.37
2022-11-15T15:38:14.117Z,31.03
2022-11-15T15:40:42.454Z,31.20
2022-11-15T15:43:10.735Z,32.43
2022-11-15T15:45:40.363Z,32.03
2022-11-15T15:48:11.331Z,31.57
2022-11-15T15:50:41.298Z,33.33
2022-11-15T15:53:09.377Z,33.77
2022-11-15T15:55:37.445Z,35.33
2022-11-15T15:58:05.910Z,37.93
2022-11-15T16:00:34.746Z,35.93
2022-11-15T16:03:02.900Z,33.67
2022-11-15T16:05:31.128Z,37.23
2022-11-15T16:08:00.814Z,36.93
2022-11-15T16:10:31.414Z,38.70
2022-11-15T16:13:00.124Z,38.60
2022-11-15T16:15:29.712Z,39.03
2022-11-15T16:17:59.442Z,36.90
2022-11-15T16:20:36.884Z,40.40
2022-11-15T16:23:09.607Z,39.57
2022-11-15T16:25:43.522Z,39.53
2022-11-15T16:28:21.137Z,38.73
2022-11-15T16:30:55.498Z,40.40
2022-11-15T16:33:25.413Z,38.07
2022-11-15T16:35:53.709Z,38.47
2022-11-15T16:38:23.383Z,40.03
2022-11-15T16:40:51.541Z,40.23
2022-11-15T16:43:19.619Z,41.73
2022-11-15T16:45:47.877Z,38.73
2022-11-15T16:48:25.283Z,42.80
2022-11-15T16:50:57.443Z,41.20
2022-11-15T16:53:27.926Z,41.80
2022-11-15T16:55:57.184Z,40.50
2022-11-15T16:58:25.885Z,41.43
2022-11-15T17:00:55.046Z,42.00
2022-11-15T17:03:23.465Z,41.47
2022-11-15T17:05:52.301Z,42.37
2022-11-15T17:08:22.105Z,40.73
2022-11-15T17:10:51.705Z,42.53
2022-11-15T17:13:19.931Z,39.20
2022-11-15T17:15:48.095Z,43.30
2022-11-15T17:18:16.375Z,42.03
2022-11-15T17:20:44.575Z,46.10
2022-11-15T17:23:15.357Z,42.10
2022-11-15T17:25:43.697Z,44.40
2022-11-15T17:28:13.285Z,41.87
2022-11-15T17:30:43.881Z,42.63
2022-11-15T17:33:12.047Z,43.73
2022-11-15T17:35:40.103Z,43.53
2022-11-15T17:38:08.712Z,43.13
2022-11-15T17:40:36.903Z,47.03
2022-11-15T17:43:06.926Z,46.93
2022-11-15T17:45:38.295Z,47.47
2022-11-15T17:48:06.849Z,45.60
2022-11-15T17:50:35.134Z,46.50
2022-11-15T17:53:03.279Z,47.57
2022-11-15T17:55:31.395Z,45.97
2022-11-15T17:57:59.559Z,46.03
2022-11-15T18:00:27.664Z,45.47
2022-11-15T18:02:58.351Z,47.67
2022-11-15T18:05:26.376Z,51.30
2022-11-15T18:07:54.510Z,53.17
2022-11-15T18:10:22.516Z,54.43
2022-11-15T18:12:50.540Z,58.17
2022-11-15T18:15:19.201Z,57.80
2022-11-15T18:17:47.613Z,56.77
2022-11-15T18:20:17.985Z,55.20
2022-11-15T18:22:50.444Z,58.63
2022-11-15T18:25:18.482Z,58.90
2022-11-15T18:27:46.730Z,62.83
2022-11-15T18:30:15.262Z,61.63
2022-11-15T18:32:43.376Z,63.33
2022-11-15T18:35:11.453Z,59.17
2022-11-15T18:37:40.985Z,60.40
2022-11-15T18:40:10.740Z,59.37
2022-11-15T18:42:38.972Z,58.53
2022-11-15T18:45:07.881Z,59.97
2022-11-15T18:47:36.014Z,61.50
2022-11-15T18:50:04.678Z,62.13
2022-11-15T18:52:32.798Z,63.57
2022-11-15T18:55:02.363Z,62.47
2022-11-15T18:57:31.877Z,60.57
2022-11-15T19:00:01.128Z,57.60
2022-11-15T19:02:29.876Z,58.87
2022-11-15T19:04:57.975Z,61.27
2022-11-15T19:07:26.209Z,61.40
2022-11-15T19:09:54.317Z,60.93
2022-11-15T19:12:23.791Z,59.10
2022-11-15T19:14:51.876Z,59.03
2022-11-15T19:17:20.134Z,61.30
2022-11-15T19:19:48.237Z,61.23
2022-11-15T19:22:16.594Z,58.33
2022-11-15T19:24:44.783Z,57.60
2022-11-15T19:27:13.182Z,61.03
2022-11-15T19:29:42.565Z,59.27
2022-11-15T19:32:10.665Z,58.23
2022-11-15T19:34:41.733Z,54.00
2022-11-15T19:37:09.992Z,53.43
2022-11-15T19:39:41.024Z,50.60
2022-11-15T19:42:09.733Z,44.87
2022-11-15T19:44:37.844Z,41.40
2022-11-15T19:47:09.413Z,43.40
2022-11-15T19:49:37.637Z,41.70
2022-11-15T19:52:06.288Z,45.47
2022-11-15T19:54:34.381Z,46.03
2022-11-15T19:57:02.551Z,42.30
2022-11-15T19:59:30.673Z,40.80
2022-11-15T20:01:58.702Z,40.30
2022-11-15T20:04:28.262Z,37.80
2022-11-15T20:06:56.397Z,38.23
2022-11-15T20:09:25.943Z,39.67
2022-11-15T20:11:54.126Z,38.87
2022-11-15T20:14:23.972Z,39.73
2022-11-15T20:16:54.370Z,38.80
2022-11-15T20:19:22.770Z,39.27
2022-11-15T20:21:52.220Z,39.10
2022-11-15T20:24:20.350Z,42.47
2022-11-15T20:26:48.514Z,44.53
2022-11-15T20:29:16.799Z,45.97
2022-11-15T20:31:44.845Z,44.10
2022-11-15T20:34:12.967Z,46.73
2022-11-15T20:36:40.973Z,46.73
2022-11-15T20:39:11.932Z,45.03
2022-11-15T20:41:40.036Z,43.50
2022-11-15T20:44:08.052Z,43.70
2022-11-15T20:46:36.130Z,42.87
2022-11-15T20:49:04.238Z,42.87
2022-11-15T20:51:32.380Z,45.77
2022-11-15T20:54:00.447Z,45.20
2022-11-15T20:56:29.996Z,46.63
2022-11-15T20:58:58.612Z,44.90
2022-11-15T21:01:26.897Z,49.03
2022-11-15T21:03:56.411Z,48.70
2022-11-15T21:06:25.656Z,49.23
2022-11-15T21:09:12.356Z,48.77
2022-11-15T21:11:59.329Z,48.03
2022-11-15T21:14:27.500Z,48.80
2022-11-15T21:16:56.140Z,50.20
2022-11-15T21:19:29.009Z,48.27
2022-11-15T21:22:00.705Z,48.30
2022-11-15T21:24:28.831Z,49.23
2022-11-15T21:26:58.359Z,51.57
2022-11-15T21:29:26.510Z,48.07
2022-11-15T21:31:54.608Z,48.90
2022-11-15T21:34:22.824Z,49.80
2022-11-15T21:36:50.901Z,51.20
2022-11-15T21:39:19.050Z,53.27
2022-11-15T21:41:47.081Z,53.83
2022-11-15T21:44:16.840Z,52.63
2022-11-15T21:46:44.864Z,54.27
2022-11-15T21:49:12.953Z,53.00
2022-11-15T21:51:41.226Z,58.10
2022-11-15T21:54:09.650Z,58.80
2022-11-15T21:56:37.964Z,54.27
2022-11-15T21:59:06.204Z,54.97
2022-11-15T22:01:53.257Z,53.10
2022-11-15T22:04:24.092Z,55.53
2022-11-15T22:06:52.605Z,55.97
2022-11-15T22:09:20.717Z,56.53
2022-11-15T22:11:48.817Z,57.43
2022-11-15T22:14:17.365Z,57.17
2022-11-15T22:16:46.935Z,58.67
2022-11-15T22:19:15.141Z,56.47
2022-11-15T22:21:43.395Z,57.87
2022-11-15T22:24:11.764Z,56.30
2022-11-15T22:26:40.281Z,56.37
2022-11-15T22:29:08.406Z,52.13
2022-11-15T22:31:36.607Z,51.93
2022-11-15T22:34:06.234Z,52.10
2022-11-15T22:36:52.264Z,51.27
2022-11-15T22:39:22.593Z,48.83
2022-11-15T22:41:50.753Z,50.03
2022-11-15T22:44:18.954Z,48.33
2022-11-15T22:46:47.242Z,47.57
2022-11-15T22:49:16.971Z,47.93
2022-11-15T22:51:45.103Z,47.40
2022-11-15T22:54:13.381Z,45.90
2022-11-15T22:56:41.581Z,48.33
2022-11-15T22:59:09.860Z,47.93
2022-11-15T23:01:38.111Z,48.63
2022-11-15T23:04:06.624Z,47.03
2022-11-15T23:06:37.025Z,49.43
2022-11-15T23:09:05.326Z,49.60
2022-11-15T23:11:50.770Z,48.50
2022-11-15T23:14:18.935Z,49.90
2022-11-15T23:16:47.100Z,51.20
2022-11-15T23:19:15.435Z,48.70
2022-11-15T23:22:04.087Z,50.53
2022-11-15T23:24:33.161Z,51.30
2022-11-15T23:27:03.737Z,51.47
2022-11-15T23:29:32.196Z,55.87
2022-11-15T23:32:18.027Z,52.80
2022-11-15T23:34:47.325Z,56.87
2022-11-15T23:37:17.182Z,57.07
2022-11-15T23:39:45.343Z,58.10
2022-11-15T23:42:20.192Z,58.10
2022-11-15T23:44:50.661Z,60.10
2022-11-15T23:47:19.323Z,58.70
2022-11-15T23:49:47.510Z,59.37
2022-11-15T23:52:17.498Z,55.90
2022-11-15T23:54:45.756Z,53.47
2022-11-15T23:57:13.942Z,56.83
2022-11-15T23:59:44.168Z,55.70
